Time;durP1;ratioP1;P1;durP2;ratioP2;P2;SDS_P1;SDS_P2;PMS_P1;PMS_P2;Temp;Humidity;BMP_temperature;BMP_pressure;BME280_temperature;BME280_humidity;BME280_pressure;Samples;Min_cycle;Max_cycle;Signal;HPM_P1;HPM_P2
2023/04/19 00:01:19;;;;;;;19.80;6.20;;;;;;;9.01;93.16;100922.85;107559;1250;99610;-62
2023/04/19 00:03:47;;;;;;;11.10;5.70;;;;;;;8.98;93.40;100923.66;107628;1253;113615;-65
2023/04/19 00:06:16;;;;;;;14.60;6.50;;;;;;;8.93;93.72;100917.95;107707;1251;109419;-63
2023/04/19 00:08:44;;;;;;;16.50;6.00;;;;;;;8.89;94.10;100918.63;107595;1250;108708;-63
2023/04/19 00:11:13;;;;;;;19.50;5.80;;;;;;;8.86;94.35;100918.19;107578;1249;98348;-64
2023/04/19 00:13:41;;;;;;;14.10;5.80;;;;;;;8.83;94.40;100917.87;107576;1251;99057;-63
2023/04/19 00:16:09;;;;;;;23.30;6.30;;;;;;;8.80;94.28;100917.75;107834;1251;113226;-62
2023/04/19 00:18:38;;;;;;;12.50;5.20;;;;;;;8.77;94.93;100918.48;107565;1251;108716;-65
2023/04/19 00:21:07;;;;;;;19.00;6.00;;;;;;;8.76;94.80;100919.62;107512;1252;107731;-64
2023/04/19 00:23:35;;;;;;;12.30;5.20;;;;;;;8.76;94.65;100920.52;107715;1255;99226;-63
2023/04/19 00:26:06;;;;;;;18.80;5.60;;;;;;;8.79;94.52;100923.34;107711;1248;99687;-67
2023/04/19 00:28:34;;;;;;;17.80;6.10;;;;;;;8.81;94.32;100924.80;107917;1248;113432;-63
2023/04/19 00:31:03;;;;;;;21.90;6.40;;;;;;;8.82;94.12;100923.31;107722;1250;109493;-64
2023/04/19 00:33:32;;;;;;;21.50;5.70;;;;;;;8.86;94.22;100919.55;107634;1256;108835;-64
2023/04/19 00:36:04;;;;;;;20.50;6.50;;;;;;;8.88;93.92;100920.48;107557;1250;99253;-62
2023/04/19 00:38:32;;;;;;;15.10;6.10;;;;;;;8.92;93.77;100917.68;107609;1251;99042;-62
2023/04/19 00:41:03;;;;;;;10.90;5.40;;;;;;;9.00;93.96;100912.92;107727;1250;113732;-62
2023/04/19 00:43:36;;;;;;;16.80;6.20;;;;;;;9.07;93.52;100914.84;107618;1253;109233;-63
2023/04/19 00:46:05;;;;;;;20.10;5.60;;;;;;;9.12;93.29;100914.48;107752;1256;108068;-62
2023/04/19 00:48:35;;;;;;;19.60;5.70;;;;;;;9.18;93.05;100912.96;107676;1253;99068;-63
2023/04/19 00:51:04;;;;;;;18.70;6.00;;;;;;;9.22;92.71;100911.70;107918;1248;99161;-63
2023/04/19 00:53:33;;;;;;;13.60;6.00;;;;;;;9.28;92.78;100908.75;107775;1255;113779;-62
2023/04/19 00:56:05;;;;;;;12.80;5.70;;;;;;;9.30;92.42;100904.42;107760;1250;109980;-62
2023/04/19 00:58:35;;;;;;;19.30;5.60;;;;;;;9.32;91.70;100900.77;107729;1251;109319;-63
2023/04/19 01:01:05;;;;;;;16.50;5.70;;;;;;;9.31;91.52;100895.45;107607;1253;99180;-62
2023/04/19 01:03:33;;;;;;;13.90;5.60;;;;;;;9.30;91.25;100895.88;107650;1251;99144;-63
2023/04/19 01:06:03;;;;;;;13.60;5.50;;;;;;;9.32;91.40;100893.03;107731;1255;112892;-64
2023/04/19 01:08:31;;;;;;;17.30;5.70;;;;;;;9.35;91.24;100893.34;107671;1248;109985;-63
2023/04/19 01:11:00;;;;;;;15.10;5.80;;;;;;;9.36;91.13;100892.02;107686;1248;108240;-63
2023/04/19 01:13:28;;;;;;;18.80;6.00;;;;;;;9.37;90.95;100886.71;107666;1253;99160;-62
2023/04/19 01:15:57;;;;;;;20.00;5.90;;;;;;;9.40;90.83;100888.23;107676;1251;99160;-63
2023/04/19 01:18:31;;;;;;;17.80;6.40;;;;;;;9.39;90.36;100884.55;107630;1250;112680;-61
2023/04/19 01:21:00;;;;;;;19.60;5.80;;;;;;;9.35;89.93;100884.18;107762;1251;110663;-62
2023/04/19 01:23:31;;;;;;;25.50;6.80;;;;;;;9.31;89.81;100883.58;107680;1256;107660;-62
2023/04/19 01:26:01;;;;;;;17.80;5.30;;;;;;;9.29;89.90;100881.63;107645;1250;99164;-62
2023/04/19 01:28:29;;;;;;;16.20;5.30;;;;;;;9.31;90.00;100877.55;107782;1254;99169;-61
2023/04/19 01:30:57;;;;;;;16.80;6.50;;;;;;;9.34;90.09;100879.11;107828;1251;113307;-61
2023/04/19 01:33:26;;;;;;;18.70;6.00;;;;;;;9.35;89.85;100874.35;107732;1250;109798;-63
2023/04/19 01:35:55;;;;;;;16.40;6.50;;;;;;;9.38;90.09;100872.67;107570;1254;108252;-63
2023/04/19 01:38:23;;;;;;;17.20;6.20;;;;;;;9.44;90.12;100872.77;107648;1251;99249;-63
2023/04/19 01:40:52;;;;;;;18.90;5.70;;;;;;;9.46;89.88;100865.95;107564;1251;99252;-63
2023/04/19 01:43:21;;;;;;;19.60;5.40;;;;;;;9.45;89.34;100860.14;107564;1251;112136;-63
2023/04/19 01:45:50;;;;;;;19.80;6.40;;;;;;;9.39;88.96;100857.73;107644;1251;108675;-62
2023/04/19 01:48:19;;;;;;;13.20;4.80;;;;;;;9.32;88.68;100857.80;107573;1253;108202;-64
2023/04/19 01:50:48;;;;;;;28.00;6.30;;;;;;;9.29;89.11;100856.03;107635;1253;99223;-63
2023/04/19 01:53:16;;;;;;;15.70;5.40;;;;;;;9.28;89.17;100856.12;107582;1251;99724;-62
2023/04/19 01:55:45;;;;;;;16.30;5.00;;;;;;;9.32;89.59;100852.65;107557;1253;113312;-62
2023/04/19 01:58:14;;;;;;;18.10;5.50;;;;;;;9.30;89.27;100848.09;107710;1251;109599;-61
2023/04/19 02:00:43;;;;;;;15.00;4.60;;;;;;;9.29;89.28;100846.40;107714;1249;108186;-63
2023/04/19 02:03:11;;;;;;;14.10;5.40;;;;;;;9.22;89.06;100846.73;107577;1253;99289;-62
2023/04/19 02:05:40;;;;;;;20.80;6.70;;;;;;;9.18;89.06;100847.07;107664;1251;99271;-62
2023/04/19 02:08:08;;;;;;;16.90;6.50;;;;;;;9.13;89.14;100848.73;107582;1251;112620;-62
2023/04/19 02:10:39;;;;;;;25.50;5.70;;;;;;;9.13;89.20;100844.67;107541;1253;109894;-61
2023/04/19 02:13:07;;;;;;;24.40;5.80;;;;;;;9.16;89.68;100844.24;107675;1256;108168;-62
2023/04/19 02:15:36;;;;;;;22.20;5.90;;;;;;;9.16;89.61;100844.40;107692;1251;99234;-63
2023/04/19 02:18:05;;;;;;;21.70;6.10;;;;;;;9.14;89.54;100847.06;107715;1256;99710;-62
2023/04/19 02:20:34;;;;;;;24.40;6.10;;;;;;;9.16;89.66;100849.96;107755;1251;113618;-61
2023/04/19 02:23:04;;;;;;;21.10;6.50;;;;;;;9.20;89.75;100847.82;107655;1253;109619;-62
2023/04/19 02:25:34;;;;;;;23.80;7.10;;;;;;;9.20;89.38;100845.31;107704;1251;108759;-62
2023/04/19 02:28:02;;;;;;;15.00;5.50;;;;;;;9.24;89.44;100846.27;107707;1251;99179;-61
2023/04/19 02:30:32;;;;;;;25.10;6.10;;;;;;;9.29;89.69;100846.21;107617;1251;99249;-62
2023/04/19 02:33:01;;;;;;;22.90;6.70;;;;;;;9.32;89.39;100837.91;107597;1253;113180;-62
2023/04/19 02:35:30;;;;;;;15.90;6.10;;;;;;;9.35;89.25;100837.67;107626;1254;110071;-63
2023/04/19 02:38:02;;;;;;;18.00;5.70;;;;;;;9.37;89.36;100832.63;107738;1252;108704;-62
2023/04/19 02:40:30;;;;;;;17.90;6.60;;;;;;;9.39;89.20;100833.02;107877;1251;99807;-62
2023/04/19 02:42:59;;;;;;;19.30;7.00;;;;;;;9.40;88.91;100834.36;107690;1251;99169;-64
2023/04/19 02:45:28;;;;;;;18.00;6.00;;;;;;;9.43;89.08;100834.88;107633;1257;112505;-61
2023/04/19 02:47:58;;;;;;;22.80;7.40;;;;;;;9.36;88.49;100834.34;107696;1256;109644;-62
2023/04/19 02:50:27;;;;;;;20.00;6.90;;;;;;;9.25;88.35;100838.66;107622;1254;108185;-62
2023/04/19 02:52:57;;;;;;;14.50;6.10;;;;;;;9.19;88.36;100837.92;107679;1256;99702;-62
2023/04/19 02:55:26;;;;;;;14.30;5.60;;;;;;;9.16;88.60;100842.42;107755;1251;99058;-62
2023/04/19 02:58:06;;;;;;;20.90;6.30;;;;;;;9.12;88.96;100839.52;107754;1256;113070;-61
2023/04/19 03:00:38;;;;;;;24.10;6.30;;;;;;;9.07;89.10;100836.53;107692;1251;109653;-63
2023/04/19 03:03:10;;;;;;;18.90;6.00;;;;;;;9.03;89.33;100838.78;107731;1251;108282;-62
2023/04/19 03:05:38;;;;;;;11.00;5.90;;;;;;;9.01;89.56;100838.64;107768;1256;99342;-63
2023/04/19 03:08:09;;;;;;;14.00;6.60;;;;;;;8.98;89.80;100836.58;107629;1251;99164;-63
2023/04/19 03:10:38;;;;;;;22.60;6.60;;;;;;;8.94;89.61;100840.60;107656;1253;113105;-63
2023/04/19 03:13:09;;;;;;;20.20;7.40;;;;;;;8.93;89.62;100841.73;107774;1251;109651;-63
2023/04/19 03:15:38;;;;;;;24.00;6.60;;;;;;;8.94;89.98;100839.86;107677;1253;107222;-63
2023/04/19 03:18:07;;;;;;;20.80;7.50;;;;;;;8.96;90.06;100837.77;107706;1253;99157;-62
2023/04/19 03:20:36;;;;;;;18.80;8.40;;;;;;;8.95;90.09;100835.16;107727;1251;99272;-60
2023/04/19 03:23:06;;;;;;;21.50;7.80;;;;;;;8.94;90.41;100832.89;107747;1253;111974;-62
2023/04/19 03:25:35;;;;;;;23.10;7.70;;;;;;;8.94;90.52;100834.71;107960;1251;110048;-63
2023/04/19 03:28:15;;;;;;;18.50;7.90;;;;;;;8.92;90.51;100835.06;107723;1253;106847;-63
2023/04/19 03:31:07;;;;;;;19.00;7.20;;;;;;;8.91;90.67;100831.76;107562;1251;99088;-61
2023/04/19 03:33:36;;;;;;;20.00;7.20;;;;;;;8.93;90.75;100833.66;107656;1252;99053;-63
2023/04/19 03:36:05;;;;;;;29.00;6.50;;;;;;;8.91;90.73;100835.29;107647;1251;112648;-63
2023/04/19 03:38:36;;;;;;;23.40;7.80;;;;;;;8.87;90.98;100835.79;107584;1251;109667;-62
2023/04/19 03:41:19;;;;;;;25.90;7.90;;;;;;;8.84;90.81;100833.92;107722;1251;108338;-62
2023/04/19 03:43:51;;;;;;;20.50;6.90;;;;;;;8.85;91.21;100834.56;107745;1250;99121;-61
2023/04/19 03:46:20;;;;;;;26.60;7.40;;;;;;;8.81;91.11;100828.22;107754;1254;99672;-62
2023/04/19 03:48:50;;;;;;;21.10;7.10;;;;;;;8.80;91.27;100823.69;107642;1253;112708;-63
2023/04/19 03:51:19;;;;;;;15.00;7.20;;;;;;;8.77;91.68;100822.09;107748;1255;109718;-63
2023/04/19 03:53:47;;;;;;;24.30;7.10;;;;;;;8.74;91.81;100821.45;107681;1251;107735;-62
2023/04/19 03:56:18;;;;;;;14.60;7.00;;;;;;;8.70;92.31;100822.98;107561;1251;99202;-61
2023/04/19 03:58:50;;;;;;;27.40;8.20;;;;;;;8.67;92.55;100821.15;107735;1251;99166;-62
2023/04/19 04:01:20;;;;;;;24.60;7.10;;;;;;;8.63;92.82;100822.35;107760;1251;112681;-63
2023/04/19 04:03:49;;;;;;;20.10;8.00;;;;;;;8.61;92.76;100819.97;107574;1251;109430;-62
2023/04/19 04:06:18;;;;;;;26.60;8.30;;;;;;;8.65;92.68;100826.27;107730;1251;108619;-63
2023/04/19 04:08:47;;;;;;;21.30;7.10;;;;;;;8.69;92.62;100823.34;107577;1251;99243;-62
2023/04/19 04:11:16;;;;;;;22.10;8.20;;;;;;;8.74;92.88;100827.20;107732;1251;99707;-63
2023/04/19 04:13:48;;;;;;;22.70;8.00;;;;;;;8.78;92.64;100822.38;107724;1251;113383;-63
2023/04/19 04:16:21;;;;;;;;;;;;;;;8.81;92.54;100823.03;107703;1253;109681;-63
2023/04/19 04:18:51;;;;;;;16.80;7.10;;;;;;;8.78;92.52;100821.16;107651;1251;107299;-63
2023/04/19 04:21:23;;;;;;;19.00;6.60;;;;;;;8.77;92.41;100821.57;107688;1250;99180;-64
2023/04/19 04:24:02;;;;;;;27.10;8.80;;;;;;;8.78;92.30;100820.45;107547;1251;99798;-63
2023/04/19 04:27:02;;;;;;;30.90;10.20;;;;;;;8.81;92.36;100818.42;107630;1251;113378;-63
2023/04/19 04:29:34;;;;;;;28.80;10.80;;;;;;;8.80;92.27;100820.64;107652;1251;108787;-63
2023/04/19 04:32:09;;;;;;;30.10;10.40;;;;;;;8.80;92.39;100814.02;107670;1251;108653;-63
2023/04/19 04:34:41;;;;;;;41.60;9.40;;;;;;;8.84;92.33;100816.55;107560;1251;99188;-64
2023/04/19 04:37:13;;;;;;;31.80;9.90;;;;;;;8.91;92.27;100815.26;107568;1253;99135;-63
2023/04/19 04:39:43;;;;;;;17.10;7.50;;;;;;;8.98;92.27;100812.34;107765;1254;113308;-64
2023/04/19 04:42:12;;;;;;;23.60;6.80;;;;;;;9.07;92.18;100809.30;107671;1251;110011;-63
2023/04/19 04:44:41;;;;;;;22.40;7.90;;;;;;;9.13;91.73;100805.80;107784;1251;107909;-63
2023/04/19 04:47:12;;;;;;;29.50;8.10;;;;;;;9.07;90.83;100804.13;107575;1251;99719;-62
2023/04/19 04:49:46;;;;;;;18.20;7.70;;;;;;;8.97;90.85;100804.78;107594;1253;99038;-63
2023/04/19 04:52:18;;;;;;;24.60;7.60;;;;;;;8.93;91.07;100806.50;107559;1251;113095;-66
2023/04/19 04:54:59;;;;;;;28.60;7.50;;;;;;;8.91;91.43;100804.56;107572;1251;108515;-63
2023/04/19 04:57:31;;;;;;;26.90;6.90;;;;;;;8.87;91.47;100802.77;107693;1251;107420;-62
2023/04/19 05:00:00;;;;;;;21.30;7.50;;;;;;;8.89;91.55;100801.29;107575;1250;99240;-62
2023/04/19 05:02:34;;;;;;;29.80;7.50;;;;;;;8.95;91.65;100800.48;107650;1251;99807;-64
2023/04/19 05:05:03;;;;;;;26.70;8.00;;;;;;;9.01;91.55;100802.63;107595;1251;113545;-63
2023/04/19 05:07:33;;;;;;;32.20;7.40;;;;;;;9.06;91.36;100804.96;107614;1250;108691;-62
2023/04/19 05:10:02;;;;;;;23.90;9.30;;;;;;;9.05;90.89;100798.60;107598;1251;108688;-63
2023/04/19 05:12:39;;;;;;;27.40;8.60;;;;;;;9.02;90.74;100805.23;107645;1251;99257;-63
2023/04/19 05:15:08;;;;;;;32.20;7.60;;;;;;;9.06;90.77;100807.09;107769;1249;99064;-63
2023/04/19 05:17:37;;;;;;;31.90;7.60;;;;;;;9.11;90.59;100807.44;107695;1253;113650;-64
2023/04/19 05:20:06;;;;;;;24.50;8.30;;;;;;;9.15;90.53;100804.77;107625;1251;109016;-63
2023/04/19 05:22:36;;;;;;;32.10;8.40;;;;;;;9.21;90.73;100801.70;107743;1250;107625;-63
2023/04/19 05:25:10;;;;;;;33.20;8.00;;;;;;;9.29;90.46;100801.59;107598;1250;99158;-63
2023/04/19 05:27:39;;;;;;;31.10;8.10;;;;;;;9.35;90.19;100803.81;107769;1251;99058;-63
2023/04/19 05:30:09;;;;;;;34.00;8.80;;;;;;;9.43;90.01;100805.17;107588;1250;112620;-63
2023/04/19 05:32:41;;;;;;;31.50;8.30;;;;;;;9.50;89.81;100806.68;107613;1251;109708;-64
2023/04/19 05:35:11;;;;;;;35.90;9.30;;;;;;;9.58;89.60;100802.47;107762;1255;107732;-61
2023/04/19 05:37:40;;;;;;;30.00;7.30;;;;;;;9.62;88.80;100804.11;107671;1254;99260;-63
2023/04/19 05:40:09;;;;;;;31.80;7.30;;;;;;;9.55;87.91;100807.77;107782;1251;99169;-62
2023/04/19 05:42:38;;;;;;;25.40;6.80;;;;;;;9.50;87.91;100809.39;107772;1251;114339;-62
2023/04/19 05:45:07;;;;;;;34.90;7.20;;;;;;;9.49;87.92;100804.97;107774;1251;108407;-63
2023/04/19 05:47:36;;;;;;;20.90;7.00;;;;;;;9.49;87.87;100805.91;107741;1251;108572;-62
2023/04/19 05:50:23;;;;;;;23.00;7.30;;;;;;;9.56;88.20;100801.75;107631;1251;99252;-62
2023/04/19 05:53:14;;;;;;;32.00;7.00;;;;;;;9.67;88.27;100805.48;107797;1251;99169;-62
2023/04/19 05:55:44;;;;;;;21.00;7.00;;;;;;;9.80;88.10;100800.84;107630;1251;113415;-63
2023/04/19 05:58:13;;;;;;;20.40;6.20;;;;;;;9.89;87.69;100804.53;107694;1254;110174;-64
2023/04/19 06:00:42;;;;;;;29.70;6.70;;;;;;;9.94;86.75;100802.86;107759;1251;108323;-63
2023/04/19 06:03:11;;;;;;;29.50;7.60;;;;;;;9.90;86.02;100803.52;107665;1251;99169;-64
2023/04/19 06:05:40;;;;;;;29.10;7.60;;;;;;;9.84;85.90;100804.90;107662;1251;99153;-62
2023/04/19 06:08:08;;;;;;;26.20;7.30;;;;;;;9.85;86.19;100806.67;107779;1251;113223;-63
2023/04/19 06:10:37;;;;;;;22.60;6.60;;;;;;;9.83;86.10;100808.77;107756;1251;109999;-62
2023/04/19 06:13:22;;;;;;;32.40;7.00;;;;;;;9.80;86.03;100807.39;107712;1256;107667;-64
2023/04/19 06:15:52;;;;;;;28.20;7.30;;;;;;;9.84;86.31;100807.65;107817;1250;99247;-63
2023/04/19 06:18:21;;;;;;;37.50;7.10;;;;;;;9.82;85.91;100804.88;107806;1250;99683;-64
2023/04/19 06:20:52;;;;;;;34.90;8.20;;;;;;;9.81;85.92;100803.92;107662;1251;113508;-63
2023/04/19 06:23:20;;;;;;;31.20;6.90;;;;;;;9.88;86.28;100804.93;107780;1253;109080;-65
2023/04/19 06:25:49;;;;;;;33.60;6.20;;;;;;;10.01;86.56;100802.59;107940;1249;107532;-64
2023/04/19 06:28:18;;;;;;;30.20;7.10;;;;;;;10.14;85.96;100802.60;107785;1251;99291;-62
2023/04/19 06:30:49;;;;;;;25.10;7.60;;;;;;;10.18;85.13;100798.96;107813;1251;99054;-62
2023/04/19 06:33:17;;;;;;;28.50;7.40;;;;;;;10.15;84.47;100798.02;107798;1251;113337;-63
2023/04/19 06:35:46;;;;;;;34.10;6.80;;;;;;;10.17;85.04;100794.04;107633;1251;108997;-63
2023/04/19 06:38:14;;;;;;;33.50;6.10;;;;;;;10.26;85.44;100797.91;107709;1251;108004;-65
2023/04/19 06:40:43;;;;;;;30.70;6.70;;;;;;;10.39;85.56;100795.08;107920;1248;99177;-63
2023/04/19 06:43:12;;;;;;;21.30;5.80;;;;;;;10.48;84.69;100794.98;107919;1251;99051;-62
2023/04/19 06:45:41;;;;;;;27.00;5.50;;;;;;;10.53;84.80;100794.41;107917;1251;113577;-62
2023/04/19 06:48:10;;;;;;;24.00;5.90;;;;;;;10.59;84.53;100792.97;107945;1249;110027;-62
2023/04/19 06:50:38;;;;;;;21.70;6.40;;;;;;;10.62;83.93;100793.55;107947;1249;107703;-62
2023/04/19 06:53:07;;;;;;;21.70;7.00;;;;;;;10.67;83.91;100798.75;107732;1250;99266;-62
2023/04/19 06:55:35;;;;;;;32.10;7.80;;;;;;;10.74;82.70;100793.45;107634;1251;99167;-63
2023/04/19 06:58:06;;;;;;;25.10;5.90;;;;;;;10.86;82.14;100797.62;107657;1251;113591;-62
2023/04/19 07:00:35;;;;;;;32.80;7.80;;;;;;;10.97;81.21;100798.60;107647;1251;111180;-63
2023/04/19 07:03:03;;;;;;;26.80;6.60;;;;;;;11.04;80.05;100797.57;107702;1250;109360;-63
2023/04/19 07:05:32;;;;;;;23.80;7.20;;;;;;;11.07;79.70;100790.52;107718;1251;99151;-62
2023/04/19 07:08:01;;;;;;;28.20;6.70;;;;;;;11.03;79.26;100790.88;107677;1253;99276;-62
2023/04/19 07:10:29;;;;;;;27.80;6.60;;;;;;;11.06;80.20;100791.54;107663;1251;113523;-62
2023/04/19 07:12:57;;;;;;;37.60;8.40;;;;;;;11.15;80.52;100791.39;107672;1250;110773;-63
2023/04/19 07:15:26;;;;;;;25.00;6.90;;;;;;;11.29;80.68;100796.64;107743;1251;107705;-64
2023/04/19 07:17:54;;;;;;;23.80;6.80;;;;;;;11.39;79.58;100792.58;107707;1250;99029;-64
2023/04/19 07:20:23;;;;;;;27.30;6.70;;;;;;;11.50;77.99;100792.35;107805;1251;99153;-63
2023/04/19 07:22:51;;;;;;;44.30;9.00;;;;;;;11.57;76.48;100790.98;107690;1251;113628;-63
2023/04/19 07:25:20;;;;;;;63.60;10.20;;;;;;;11.59;76.45;100796.20;107969;1250;109960;-62
2023/04/19 07:27:48;;;;;;;26.10;7.20;;;;;;;11.60;77.20;100799.86;107741;1250;107634;-62
2023/04/19 07:30:17;;;;;;;34.90;6.60;;;;;;;11.63;77.32;100805.39;107670;1251;99013;-63
2023/04/19 07:32:50;;;;;;;24.10;6.90;;;;;;;11.61;76.58;100807.33;107579;1251;99196;-63
2023/04/19 07:35:21;;;;;;;32.40;6.30;;;;;;;11.65;76.58;100805.90;107707;1250;112791;-63
2023/04/19 07:37:49;;;;;;;19.50;6.20;;;;;;;11.74;76.93;100805.75;107633;1251;108272;-62
2023/04/19 07:40:18;;;;;;;17.40;6.10;;;;;;;11.88;76.70;100796.91;107787;1251;107668;-63
2023/04/19 07:42:46;;;;;;;31.00;6.60;;;;;;;11.95;75.16;100799.00;107619;1249;99626;-64
2023/04/19 07:45:15;;;;;;;24.20;5.80;;;;;;;11.95;75.32;100794.50;107713;1251;99154;-62
2023/04/19 07:47:46;;;;;;;25.50;7.50;;;;;;;11.97;75.09;100793.56;107652;1251;113325;-63
2023/04/19 07:50:14;;;;;;;24.00;5.80;;;;;;;11.91;74.61;100795.04;107631;1250;109231;-63
2023/04/19 07:52:43;;;;;;;31.10;7.30;;;;;;;11.92;74.92;100797.10;107693;1251;107496;-64
2023/04/19 07:55:11;;;;;;;18.00;7.10;;;;;;;11.96;74.73;100798.17;107681;1249;99069;-62
2023/04/19 07:57:44;;;;;;;24.60;6.20;;;;;;;11.95;74.27;100800.80;107726;1250;99752;-63
2023/04/19 08:00:42;;;;;;;18.70;7.20;;;;;;;11.94;73.79;100801.45;106907;1250;1129745;-65
2023/04/19 08:03:23;;;;;;;19.50;6.70;;;;;;;11.86;73.47;100799.25;107639;1250;109415;-65
2023/04/19 08:06:11;;;;;;;22.10;6.90;;;;;;;11.83;73.76;100801.04;107607;1251;108608;-64
2023/04/19 08:08:41;;;;;;;23.00;7.20;;;;;;;11.76;73.78;100799.48;107657;1250;99263;-63
2023/04/19 08:11:09;;;;;;;23.90;7.90;;;;;;;11.84;74.19;100799.82;107738;1253;99061;-63
2023/04/19 08:13:38;;;;;;;23.50;7.10;;;;;;;11.87;73.19;100796.33;107763;1250;113660;-63
2023/04/19 08:16:07;;;;;;;24.20;6.40;;;;;;;11.88;73.07;100799.09;107653;1251;109760;-63
2023/04/19 08:18:40;;;;;;;21.70;6.30;;;;;;;11.88;73.11;100799.41;107663;1250;108881;-63
2023/04/19 08:21:08;;;;;;;30.90;7.50;;;;;;;11.94;72.60;100799.40;107675;1249;99243;-63
2023/04/19 08:23:36;;;;;;;17.70;7.10;;;;;;;11.98;72.75;100801.43;107648;1250;99039;-64
2023/04/19 08:26:15;;;;;;;25.20;7.10;;;;;;;12.08;72.78;100801.70;107758;1250;112401;-63
2023/04/19 08:28:44;;;;;;;27.30;6.70;;;;;;;12.19;72.28;100797.98;107717;1251;110808;-63
2023/04/19 08:31:13;;;;;;;23.70;7.00;;;;;;;12.26;72.42;100798.31;107633;1250;108036;-64
2023/04/19 08:33:42;;;;;;;34.10;7.60;;;;;;;12.30;72.42;100799.86;107654;1250;99159;-64
2023/04/19 08:36:10;;;;;;;21.20;6.20;;;;;;;12.32;71.64;100802.18;107715;1250;99688;-63
2023/04/19 08:38:40;;;;;;;20.70;5.80;;;;;;;12.30;71.50;100802.21;107700;1250;113970;-62
2023/04/19 08:41:16;;;;;;;19.90;5.40;;;;;;;12.26;71.44;100804.02;107705;1250;110188;-64
2023/04/19 08:43:47;;;;;;;29.90;7.10;;;;;;;12.21;71.74;100801.38;107745;1250;108553;-64
2023/04/19 08:46:16;;;;;;;31.20;7.10;;;;;;;12.19;71.94;100802.50;107645;1250;99231;-64
2023/04/19 08:48:47;;;;;;;34.20;6.40;;;;;;;12.20;72.12;100798.29;107665;1251;99074;-64
2023/04/19 08:51:16;;;;;;;24.90;6.40;;;;;;;12.27;72.05;100792.09;107836;1249;112642;-64
2023/04/19 08:53:47;;;;;;;29.50;5.60;;;;;;;12.36;72.17;100785.47;107835;1250;110246;-63
2023/04/19 08:56:15;;;;;;;24.10;6.20;;;;;;;12.44;71.20;100785.19;107743;1250;108572;-62
2023/04/19 08:59:02;;;;;;;24.80;5.70;;;;;;;12.47;71.36;100786.02;107674;1250;99176;-65
2023/04/19 09:01:47;;;;;;;20.80;8.10;;;;;;;12.53;70.89;100787.92;107651;1250;99833;-64
2023/04/19 09:04:15;;;;;;;21.30;5.50;;;;;;;12.61;70.30;100784.83;107651;1253;113276;-62
2023/04/19 09:07:03;;;;;;;30.90;5.60;;;;;;;12.71;70.39;100782.48;107875;1248;110184;-63
2023/04/19 09:09:34;;;;;;;22.40;5.70;;;;;;;12.81;70.40;100787.20;107933;1249;108050;-64
2023/04/19 09:12:16;;;;;;;33.90;6.30;;;;;;;12.87;70.18;100785.57;107721;1250;99661;-62
2023/04/19 09:14:46;;;;;;;24.00;7.00;;;;;;;12.94;70.29;100787.77;107642;1248;99154;-63
2023/04/19 09:17:18;;;;;;;20.40;6.40;;;;;;;13.00;70.26;100788.05;107761;1250;114139;-63
2023/04/19 09:19:49;;;;;;;24.50;6.30;;;;;;;13.06;69.84;100785.01;107688;1250;109851;-64
2023/04/19 09:22:18;;;;;;;25.40;6.70;;;;;;;13.09;69.01;100786.42;107703;1249;108817;-63
2023/04/19 09:24:46;;;;;;;18.90;7.00;;;;;;;13.06;69.44;100788.34;107764;1250;99058;-63
2023/04/19 09:27:29;;;;;;;23.40;6.50;;;;;;;12.98;69.19;100789.15;107664;1250;100165;-64
2023/04/19 09:29:59;;;;;;;18.80;5.70;;;;;;;12.90;69.10;100793.42;107757;1251;114749;-63
2023/04/19 09:32:44;;;;;;;16.60;6.00;;;;;;;12.82;69.51;100797.56;107710;1250;109745;-61
2023/04/19 09:35:13;;;;;;;21.10;6.00;;;;;;;12.87;69.82;100796.91;107694;1249;107738;-64
2023/04/19 09:37:42;;;;;;;19.30;5.30;;;;;;;12.90;69.77;100796.81;107689;1249;99157;-63
2023/04/19 09:40:23;;;;;;;22.20;5.20;;;;;;;12.92;69.62;100796.80;107706;1250;99662;-62
2023/04/19 09:42:52;;;;;;;24.00;6.60;;;;;;;13.06;69.46;100795.75;107629;1250;113486;-63
2023/04/19 09:45:35;;;;;;;23.70;5.90;;;;;;;13.17;69.76;100789.48;107586;1250;109811;-62
2023/04/19 09:48:08;;;;;;;20.40;4.80;;;;;;;13.24;69.25;100790.41;107747;1250;107826;-63
2023/04/19 09:51:00;;;;;;;23.20;5.60;;;;;;;13.25;69.60;100787.63;107666;1251;99261;-64
2023/04/19 09:53:39;;;;;;;23.60;5.50;;;;;;;13.26;69.33;100788.08;107690;1249;99045;-63
2023/04/19 09:56:11;;;;;;;24.70;5.50;;;;;;;13.25;69.09;100794.30;107721;1250;111236;-64
2023/04/19 09:58:40;;;;;;;16.60;5.10;;;;;;;13.27;69.30;100791.13;107731;1250;109664;-63
2023/04/19 10:01:21;;;;;;;23.10;6.30;;;;;;;13.32;68.95;100788.48;107752;1249;107972;-63
2023/04/19 10:03:50;;;;;;;17.70;5.70;;;;;;;13.24;68.11;100791.48;107815;1249;99566;-63
2023/04/19 10:06:20;;;;;;;26.20;5.80;;;;;;;13.20;68.20;100792.42;107774;1249;99652;-63
2023/04/19 10:08:54;;;;;;;18.70;5.40;;;;;;;13.28;68.58;100786.73;107800;1250;114409;-63
2023/04/19 10:11:26;;;;;;;19.60;5.20;;;;;;;13.45;68.56;100788.68;107777;1250;111015;-61
2023/04/19 10:13:59;;;;;;;15.90;5.20;;;;;;;13.63;69.02;100790.34;107743;1249;108638;-64
2023/04/19 10:16:29;;;;;;;27.70;5.70;;;;;;;13.80;68.71;100791.16;107689;1250;99241;-67
2023/04/19 10:18:59;;;;;;;23.20;5.40;;;;;;;13.83;67.30;100790.23;107680;1251;99724;-63
2023/04/19 10:21:28;;;;;;;26.70;6.00;;;;;;;13.80;67.31;100795.66;107744;1249;113585;-64
2023/04/19 10:23:58;;;;;;;18.00;4.60;;;;;;;13.77;67.17;100794.69;107910;1251;108081;-65
2023/04/19 10:26:27;;;;;;;20.70;5.80;;;;;;;13.68;66.78;100794.45;107658;1249;107659;-64
2023/04/19 10:28:56;;;;;;;17.80;5.20;;;;;;;13.66;66.77;100793.48;107944;1248;99151;-64
2023/04/19 10:31:25;;;;;;;25.80;5.10;;;;;;;13.67;67.43;100792.24;107652;1250;99047;-63
2023/04/19 10:33:57;;;;;;;32.20;6.60;;;;;;;13.54;66.45;100794.33;107764;1250;113217;-65
2023/04/19 10:36:31;;;;;;;19.30;5.00;;;;;;;13.40;66.99;100795.64;107681;1249;110702;-64
2023/04/19 10:39:00;;;;;;;22.30;5.00;;;;;;;13.34;67.47;100793.56;107681;1249;107810;-63
2023/04/19 10:42:01;;;;;;;21.70;4.90;;;;;;;13.38;67.82;100797.70;107723;1255;99178;-63
2023/04/19 10:44:29;;;;;;;15.60;5.20;;;;;;;13.39;67.28;100795.58;107709;1253;99212;-63
2023/04/19 10:46:59;;;;;;;22.40;4.60;;;;;;;13.40;67.50;100800.92;107800;1249;113039;-64
2023/04/19 10:49:28;;;;;;;20.20;5.90;;;;;;;13.39;67.77;100800.27;107617;1251;109324;-64
2023/04/19 10:51:58;;;;;;;22.60;5.00;;;;;;;13.35;67.46;100805.71;107881;1248;107848;-64
2023/04/19 10:54:30;;;;;;;18.20;4.80;;;;;;;13.24;67.33;100809.84;107929;1251;99156;-62
2023/04/19 10:57:04;;;;;;;24.00;5.40;;;;;;;13.21;67.76;100814.70;107695;1248;99134;-63
2023/04/19 10:59:35;;;;;;;17.40;4.60;;;;;;;13.16;67.99;100817.86;107932;1248;113602;-63
2023/04/19 11:02:26;;;;;;;21.50;6.20;;;;;;;13.11;68.07;100818.80;107970;1248;109734;-62
2023/04/19 11:04:55;;;;;;;20.00;5.90;;;;;;;13.05;68.07;100820.15;107878;1250;107881;-62
2023/04/19 11:07:24;;;;;;;17.30;5.50;;;;;;;12.99;68.28;100819.66;107757;1250;99125;-62
2023/04/19 11:09:52;;;;;;;23.20;5.70;;;;;;;12.93;68.50;100817.70;107767;1250;99051;-64
2023/04/19 11:12:21;;;;;;;18.90;6.20;;;;;;;12.83;68.69;100819.75;107764;1250;114721;-63
2023/04/19 11:14:56;;;;;;;18.70;6.50;;;;;;;12.67;68.84;100816.61;107745;1250;109993;-62
2023/04/19 11:17:28;;;;;;;24.80;6.40;;;;;;;12.59;69.26;100812.36;107677;1249;107408;-63
2023/04/19 11:20:00;;;;;;;17.20;5.70;;;;;;;12.58;70.07;100811.00;107660;1250;99706;-63
2023/04/19 11:22:34;;;;;;;26.70;5.80;;;;;;;12.51;70.93;100810.29;107864;1248;99159;-64
2023/04/19 11:25:20;;;;;;;;;;;;;;;12.51;71.40;100809.55;107978;1249;113243;-66
2023/04/19 11:27:51;;;;;;;14.10;6.00;;;;;;;12.51;72.11;100812.20;107891;1251;110013;-61